sensor_id;sensor_type;location;lat;lon;timestamp;temperature;humidity
12233;DHT22;6179;51.748;8.728;2023-05-10T00:03:06;16.30;98.30
12233;DHT22;6179;51.748;8.728;2023-05-10T00:09:07;16.30;98.30
12233;DHT22;6179;51.748;8.728;2023-05-10T00:15:08;16.60;98.30
12233;DHT22;6179;51.748;8.728;2023-05-10T00:21:09;16.60;98.30
12233;DHT22;6179;51.748;8.728;2023-05-10T00:27:09;16.80;98.30
12233;DHT22;6179;51.748;8.728;2023-05-10T00:33:10;16.60;98.30
12233;DHT22;6179;51.748;8.728;2023-05-10T00:39:11;16.70;98.30
12233;DHT22;6179;51.748;8.728;2023-05-10T00:45:12;16.90;98.30
12233;DHT22;6179;51.748;8.728;2023-05-10T00:51:13;16.90;98.30
12233;DHT22;6179;51.748;8.728;2023-05-10T00:57:14;16.70;98.30
12233;DHT22;6179;51.748;8.728;2023-05-10T01:03:15;16.70;98.30
12233;DHT22;6179;51.748;8.728;2023-05-10T01:09:15;16.60;98.30
12233;DHT22;6179;51.748;8.728;2023-05-10T01:15:17;16.60;98.30
12233;DHT22;6179;51.748;8.728;2023-05-10T01:21:38;16.80;98.30
12233;DHT22;6179;51.748;8.728;2023-05-10T01:34:16;16.30;98.30
12233;DHT22;6179;51.748;8.728;2023-05-10T01:46:41;16.00;98.30
12233;DHT22;6179;51.748;8.728;2023-05-10T01:52:47;15.60;98.30
12233;DHT22;6179;51.748;8.728;2023-05-10T01:58:48;15.70;98.30
12233;DHT22;6179;51.748;8.728;2023-05-10T02:04:51;15.10;98.30
12233;DHT22;6179;51.748;8.728;2023-05-10T02:10:55;14.80;98.30
12233;DHT22;6179;51.748;8.728;2023-05-10T02:16:56;14.70;98.30
12233;DHT22;6179;51.748;8.728;2023-05-10T02:22:59;14.40;98.30
12233;DHT22;6179;51.748;8.728;2023-05-10T02:29:02;14.10;98.30
12233;DHT22;6179;51.748;8.728;2023-05-10T02:35:04;14.30;98.30
12233;DHT22;6179;51.748;8.728;2023-05-10T02:41:07;14.40;98.30
12233;DHT22;6179;51.748;8.728;2023-05-10T02:47:08;14.30;98.30
12233;DHT22;6179;51.748;8.728;2023-05-10T02:53:15;14.30;98.30
12233;DHT22;6179;51.748;8.728;2023-05-10T02:59:16;14.10;98.30
12233;DHT22;6179;51.748;8.728;2023-05-10T03:05:17;14.10;98.30
12233;DHT22;6179;51.748;8.728;2023-05-10T03:23:43;14.20;98.30
12233;DHT22;6179;51.748;8.728;2023-05-10T03:29:46;14.40;98.30
12233;DHT22;6179;51.748;8.728;2023-05-10T03:35:47;14.70;98.30
12233;DHT22;6179;51.748;8.728;2023-05-10T03:41:47;14.30;98.30
12233;DHT22;6179;51.748;8.728;2023-05-10T03:47:48;14.10;98.30
12233;DHT22;6179;51.748;8.728;2023-05-10T03:53:48;14.20;98.30
12233;DHT22;6179;51.748;8.728;2023-05-10T03:59:49;14.10;98.30
12233;DHT22;6179;51.748;8.728;2023-05-10T04:05:59;14.00;98.30
12233;DHT22;6179;51.748;8.728;2023-05-10T04:11:59;13.80;98.30
12233;DHT22;6179;51.748;8.728;2023-05-10T04:18:02;14.00;98.30
12233;DHT22;6179;51.748;8.728;2023-05-10T04:24:03;13.80;98.30
12233;DHT22;6179;51.748;8.728;2023-05-10T04:30:04;13.90;98.30
12233;DHT22;6179;51.748;8.728;2023-05-10T04:36:05;13.90;98.30
12233;DHT22;6179;51.748;8.728;2023-05-10T04:42:06;14.10;98.30
12233;DHT22;6179;51.748;8.728;2023-05-10T04:48:07;13.80;98.30
12233;DHT22;6179;51.748;8.728;2023-05-10T04:54:08;13.50;98.30
12233;DHT22;6179;51.748;8.728;2023-05-10T05:00:09;13.90;98.30
12233;DHT22;6179;51.748;8.728;2023-05-10T05:06:09;13.80;98.30
12233;DHT22;6179;51.748;8.728;2023-05-10T05:12:10;13.60;98.30
12233;DHT22;6179;51.748;8.728;2023-05-10T05:18:14;13.60;98.30
12233;DHT22;6179;51.748;8.728;2023-05-10T05:24:14;13.50;98.30
12233;DHT22;6179;51.748;8.728;2023-05-10T05:30:15;13.70;98.30
12233;DHT22;6179;51.748;8.728;2023-05-10T05:36:16;13.50;98.30
12233;DHT22;6179;51.748;8.728;2023-05-10T05:42:16;13.80;98.30
12233;DHT22;6179;51.748;8.728;2023-05-10T05:48:19;13.50;98.30
12233;DHT22;6179;51.748;8.728;2023-05-10T05:54:19;13.70;98.30
12233;DHT22;6179;51.748;8.728;2023-05-10T06:00:20;13.80;98.30
12233;DHT22;6179;51.748;8.728;2023-05-10T06:06:21;13.60;98.30
12233;DHT22;6179;51.748;8.728;2023-05-10T06:12:22;13.60;98.30
12233;DHT22;6179;51.748;8.728;2023-05-10T06:18:22;13.60;98.30
12233;DHT22;6179;51.748;8.728;2023-05-10T06:24:23;14.00;98.30
12233;DHT22;6179;51.748;8.728;2023-05-10T06:30:25;13.90;98.30
12233;DHT22;6179;51.748;8.728;2023-05-10T06:36:29;13.60;98.30
12233;DHT22;6179;51.748;8.728;2023-05-10T06:42:29;13.60;98.30
12233;DHT22;6179;51.748;8.728;2023-05-10T06:48:30;13.80;98.30
12233;DHT22;6179;51.748;8.728;2023-05-10T06:54:30;13.80;98.30
12233;DHT22;6179;51.748;8.728;2023-05-10T07:00:31;14.00;98.30
12233;DHT22;6179;51.748;8.728;2023-05-10T07:06:32;14.30;98.30
12233;DHT22;6179;51.748;8.728;2023-05-10T07:12:33;14.30;98.30
12233;DHT22;6179;51.748;8.728;2023-05-10T07:18:35;14.50;98.30
12233;DHT22;6179;51.748;8.728;2023-05-10T07:24:36;14.40;98.30
12233;DHT22;6179;51.748;8.728;2023-05-10T07:30:37;14.20;98.30
12233;DHT22;6179;51.748;8.728;2023-05-10T07:36:37;14.20;98.30
12233;DHT22;6179;51.748;8.728;2023-05-10T07:42:38;14.60;98.30
12233;DHT22;6179;51.748;8.728;2023-05-10T07:48:38;14.40;98.30
12233;DHT22;6179;51.748;8.728;2023-05-10T07:54:39;15.00;98.30
12233;DHT22;6179;51.748;8.728;2023-05-10T08:00:40;15.20;98.30
12233;DHT22;6179;51.748;8.728;2023-05-10T08:06:41;15.60;98.30
12233;DHT22;6179;51.748;8.728;2023-05-10T08:12:42;16.00;98.30
12233;DHT22;6179;51.748;8.728;2023-05-10T08:18:44;15.80;98.30
12233;DHT22;6179;51.748;8.728;2023-05-10T08:24:45;15.60;98.30
12233;DHT22;6179;51.748;8.728;2023-05-10T08:30:45;15.50;98.30
12233;DHT22;6179;51.748;8.728;2023-05-10T08:36:46;15.30;98.30
12233;DHT22;6179;51.748;8.728;2023-05-10T08:43:05;15.70;98.30
12233;DHT22;6179;51.748;8.728;2023-05-10T08:49:07;15.90;98.30
12233;DHT22;6179;51.748;8.728;2023-05-10T08:55:10;16.10;98.30
12233;DHT22;6179;51.748;8.728;2023-05-10T09:01:11;16.10;98.30
12233;DHT22;6179;51.748;8.728;2023-05-10T13:59:59;19.60;88.30
12233;DHT22;6179;51.748;8.728;2023-05-10T14:05:59;18.40;89.40
12233;DHT22;6179;51.748;8.728;2023-05-10T14:12:00;18.20;93.80
12233;DHT22;6179;51.748;8.728;2023-05-10T14:18:01;17.70;96.10
12233;DHT22;6179;51.748;8.728;2023-05-10T14:24:02;16.60;98.30
12233;DHT22;6179;51.748;8.728;2023-05-10T14:30:02;15.90;98.30
12233;DHT22;6179;51.748;8.728;2023-05-10T14:36:03;15.80;98.30
12233;DHT22;6179;51.748;8.728;2023-05-10T14:42:04;15.20;98.30
12233;DHT22;6179;51.748;8.728;2023-05-10T14:48:05;15.00;98.30
12233;DHT22;6179;51.748;8.728;2023-05-10T14:54:06;14.70;98.30
12233;DHT22;6179;51.748;8.728;2023-05-10T15:00:07;14.70;98.30
12233;DHT22;6179;51.748;8.728;2023-05-10T15:06:08;14.80;98.30
12233;DHT22;6179;51.748;8.728;2023-05-10T15:12:09;15.10;98.30
12233;DHT22;6179;51.748;8.728;2023-05-10T15:18:09;15.10;98.30
12233;DHT22;6179;51.748;8.728;2023-05-10T15:24:10;15.50;98.30
12233;DHT22;6179;51.748;8.728;2023-05-10T15:30:11;15.50;98.30
12233;DHT22;6179;51.748;8.728;2023-05-10T15:36:12;15.30;98.30
12233;DHT22;6179;51.748;8.728;2023-05-10T15:42:13;15.20;98.30
12233;DHT22;6179;51.748;8.728;2023-05-10T15:48:13;15.00;98.30
12233;DHT22;6179;51.748;8.728;2023-05-10T15:54:14;14.80;98.30
12233;DHT22;6179;51.748;8.728;2023-05-10T16:00:16;14.80;98.30
12233;DHT22;6179;51.748;8.728;2023-05-10T16:06:17;14.40;98.30
12233;DHT22;6179;51.748;8.728;2023-05-10T16:12:18;14.30;98.30
12233;DHT22;6179;51.748;8.728;2023-05-10T16:18:18;14.60;98.30
12233;DHT22;6179;51.748;8.728;2023-05-10T16:24:19;14.60;98.30
12233;DHT22;6179;51.748;8.728;2023-05-10T16:30:20;14.60;98.30
12233;DHT22;6179;51.748;8.728;2023-05-10T16:36:20;14.30;98.30
12233;DHT22;6179;51.748;8.728;2023-05-10T16:42:21;14.00;98.30
12233;DHT22;6179;51.748;8.728;2023-05-10T16:48:23;13.70;98.30
12233;DHT22;6179;51.748;8.728;2023-05-10T16:54:24;14.20;98.30
12233;DHT22;6179;51.748;8.728;2023-05-10T17:00:25;14.30;98.30
12233;DHT22;6179;51.748;8.728;2023-05-10T17:06:26;14.50;98.30
12233;DHT22;6179;51.748;8.728;2023-05-10T17:12:27;14.50;98.30
12233;DHT22;6179;51.748;8.728;2023-05-10T17:18:28;14.70;98.30
12233;DHT22;6179;51.748;8.728;2023-05-10T17:24:28;14.50;98.30
12233;DHT22;6179;51.748;8.728;2023-05-10T17:30:30;14.50;98.30
12233;DHT22;6179;51.748;8.728;2023-05-10T17:36:32;14.50;98.30
12233;DHT22;6179;51.748;8.728;2023-05-10T17:42:32;14.00;98.30
12233;DHT22;6179;51.748;8.728;2023-05-10T17:48:33;14.00;98.30
12233;DHT22;6179;51.748;8.728;2023-05-10T17:54:36;14.00;98.30
12233;DHT22;6179;51.748;8.728;2023-05-10T18:00:37;14.30;98.30
12233;DHT22;6179;51.748;8.728;2023-05-10T18:06:37;14.30;98.30
12233;DHT22;6179;51.748;8.728;2023-05-10T18:12:38;14.50;98.30
12233;DHT22;6179;51.748;8.728;2023-05-10T18:18:39;14.50;98.30
12233;DHT22;6179;51.748;8.728;2023-05-10T18:24:39;14.40;98.30
12233;DHT22;6179;51.748;8.728;2023-05-10T18:30:40;14.60;98.30
12233;DHT22;6179;51.748;8.728;2023-05-10T18:36:41;14.70;98.30
12233;DHT22;6179;51.748;8.728;2023-05-10T18:42:43;15.00;98.30
12233;DHT22;6179;51.748;8.728;2023-05-10T18:48:46;14.70;98.30
12233;DHT22;6179;51.748;8.728;2023-05-10T18:54:48;14.40;98.30
12233;DHT22;6179;51.748;8.728;2023-05-10T19:00:48;14.50;98.30
12233;DHT22;6179;51.748;8.728;2023-05-10T19:06:49;15.00;98.30
12233;DHT22;6179;51.748;8.728;2023-05-10T19:12:49;15.40;98.30
12233;DHT22;6179;51.748;8.728;2023-05-10T19:18:50;15.20;98.30
12233;DHT22;6179;51.748;8.728;2023-05-10T19:24:51;14.80;98.30
12233;DHT22;6179;51.748;8.728;2023-05-10T19:30:52;14.70;98.30
12233;DHT22;6179;51.748;8.728;2023-05-10T19:36:53;14.90;98.30
12233;DHT22;6179;51.748;8.728;2023-05-10T19:42:54;14.80;98.30
12233;DHT22;6179;51.748;8.728;2023-05-10T19:48:56;14.60;98.30
12233;DHT22;6179;51.748;8.728;2023-05-10T19:54:56;15.20;98.30
12233;DHT22;6179;51.748;8.728;2023-05-10T20:00:57;15.20;98.30
12233;DHT22;6179;51.748;8.728;2023-05-10T20:06:58;14.70;98.30
12233;DHT22;6179;51.748;8.728;2023-05-10T20:12:59;14.50;98.30
12233;DHT22;6179;51.748;8.728;2023-05-10T20:19:00;14.40;98.30
12233;DHT22;6179;51.748;8.728;2023-05-10T20:25:01;14.30;98.30
12233;DHT22;6179;51.748;8.728;2023-05-10T20:31:01;14.40;98.30
12233;DHT22;6179;51.748;8.728;2023-05-10T20:37:02;14.50;98.30
12233;DHT22;6179;51.748;8.728;2023-05-10T20:43:03;14.80;98.30
12233;DHT22;6179;51.748;8.728;2023-05-10T20:49:06;14.80;98.30
12233;DHT22;6179;51.748;8.728;2023-05-10T20:55:08;15.00;98.30
12233;DHT22;6179;51.748;8.728;2023-05-10T21:01:08;15.00;98.30
12233;DHT22;6179;51.748;8.728;2023-05-10T21:07:09;14.80;98.30
12233;DHT22;6179;51.748;8.728;2023-05-10T21:13:10;14.70;98.30
12233;DHT22;6179;51.748;8.728;2023-05-10T21:19:10;14.60;98.30
12233;DHT22;6179;51.748;8.728;2023-05-10T21:25:11;14.60;98.30
12233;DHT22;6179;51.748;8.728;2023-05-10T21:31:12;14.50;98.30
12233;DHT22;6179;51.748;8.728;2023-05-10T21:37:14;14.40;98.30
12233;DHT22;6179;51.748;8.728;2023-05-10T21:43:16;14.40;98.30
12233;DHT22;6179;51.748;8.728;2023-05-10T21:49:17;14.60;98.30
12233;DHT22;6179;51.748;8.728;2023-05-10T21:55:18;14.90;98.30
12233;DHT22;6179;51.748;8.728;2023-05-10T22:01:18;14.80;98.30
12233;DHT22;6179;51.748;8.728;2023-05-10T22:07:19;14.30;98.30
12233;DHT22;6179;51.748;8.728;2023-05-10T22:13:20;14.20;98.30
12233;DHT22;6179;51.748;8.728;2023-05-10T22:19:20;14.10;98.30
12233;DHT22;6179;51.748;8.728;2023-05-10T22:25:21;14.40;98.30
12233;DHT22;6179;51.748;8.728;2023-05-10T22:31:22;14.50;98.30
12233;DHT22;6179;51.748;8.728;2023-05-10T22:37:22;14.40;98.30
12233;DHT22;6179;51.748;8.728;2023-05-10T22:43:23;14.70;98.30
12233;DHT22;6179;51.748;8.728;2023-05-10T22:49:24;14.50;98.30
12233;DHT22;6179;51.748;8.728;2023-05-10T22:55:25;14.40;98.30
12233;DHT22;6179;51.748;8.728;2023-05-10T23:01:25;14.70;98.30
12233;DHT22;6179;51.748;8.728;2023-05-10T23:07:26;14.50;98.30
12233;DHT22;6179;51.748;8.728;2023-05-10T23:13:26;14.30;98.30
12233;DHT22;6179;51.748;8.728;2023-05-10T23:19:27;14.20;98.30
12233;DHT22;6179;51.748;8.728;2023-05-10T23:25:28;14.20;98.30
12233;DHT22;6179;51.748;8.728;2023-05-10T23:31:28;14.20;98.30
12233;DHT22;6179;51.748;8.728;2023-05-10T23:37:29;14.30;98.30
12233;DHT22;6179;51.748;8.728;2023-05-10T23:43:30;14.30;98.30
12233;DHT22;6179;51.748;8.728;2023-05-10T23:49:30;14.40;98.30
12233;DHT22;6179;51.748;8.728;2023-05-10T23:55:31;14.30;98.30
